Time;durP1;ratioP1;P1;durP2;ratioP2;P2;SDS_P1;SDS_P2;PMS_P1;PMS_P2;Temp;Humidity;BMP_temperature;BMP_pressure;BME280_temperature;BME280_humidity;BME280_pressure;Samples;Min_cycle;Max_cycle;Signal;HPM_P1;HPM_P2
2021/05/25 00:00:49;;;;;;;;;;;8.60;99.90;;;;;;6184417;23;20261;-78
2021/05/25 00:03:16;;;;;;;;;;;8.70;99.90;;;;;;6159547;23;19926;-79
2021/05/25 00:05:43;;;;;;;;;;;8.70;99.90;;;;;;6185791;23;20262;-78
2021/05/25 00:08:09;;;;;;;;;;;8.70;99.90;;;;;;6159753;23;19920;-79
2021/05/25 00:10:36;;;;;;;;;;;8.70;99.90;;;;;;6159486;23;20338;-79
2021/05/25 00:13:03;;;;;;;;;;;8.60;99.90;;;;;;6146428;23;19921;-78
2021/05/25 00:15:32;;;;;;;;;;;8.60;99.90;;;;;;6151911;23;19920;-80
2021/05/25 00:17:59;;;;;;;;;;;8.50;99.90;;;;;;6180679;23;19951;-80
2021/05/25 00:20:26;;;;;;;;;;;8.50;99.90;;;;;;6180306;23;19944;-79
2021/05/25 00:22:58;;;;;;;;;;;8.40;99.90;;;;;;6140556;23;19921;-78
2021/05/25 00:25:32;;;;;;;;;;;8.40;99.90;;;;;;6130925;23;19924;-79
2021/05/25 00:28:03;;;;;;;;;;;8.40;99.90;;;;;;6130785;23;19975;-78
2021/05/25 00:30:30;;;;;;;;;;;8.40;99.90;;;;;;6153987;23;19928;-79
2021/05/25 00:32:57;;;;;;;;;;;8.40;99.90;;;;;;6153280;23;19920;-78
2021/05/25 00:35:26;;;;;;;;;;;8.30;99.90;;;;;;6153677;23;20261;-78
2021/05/25 00:37:57;;;;;;;;;;;8.30;99.90;;;;;;6130037;23;19920;-78
2021/05/25 00:40:24;;;;;;;;;;;8.30;99.90;;;;;;6129075;23;19972;-78
2021/05/25 00:42:56;;;;;;;;;;;8.20;99.90;;;;;;6129864;23;20007;-78
2021/05/25 00:45:28;;;;;;;;;;;8.30;99.90;;;;;;6130137;23;19996;-78
2021/05/25 00:47:59;;;;;;;;;;;8.30;99.90;;;;;;6130036;23;20007;-78
2021/05/25 00:50:31;;;;;;;;;;;8.30;99.90;;;;;;6129745;23;20417;-78
2021/05/25 00:53:00;;;;;;;;;;;8.30;99.90;;;;;;6128731;23;19959;-78
2021/05/25 00:55:27;;;;;;;;;;;8.30;99.90;;;;;;6129019;23;20338;-78
2021/05/25 00:57:55;;;;;;;;;;;8.30;99.90;;;;;;6128914;23;19929;-79
2021/05/25 01:00:26;;;;;;;;;;;8.30;99.90;;;;;;6128338;23;19971;-78
2021/05/25 01:02:53;;;;;;;;;;;8.40;99.90;;;;;;6128628;23;19976;-78
2021/05/25 01:05:25;;;;;;;;;;;8.40;99.90;;;;;;6153107;23;19927;-78
2021/05/25 01:07:58;;;;;;;;;;;8.30;99.90;;;;;;6152985;23;20008;-78
2021/05/25 01:10:34;;;;;;;;;;;8.30;99.90;;;;;;6128599;23;19921;-78
2021/05/25 01:13:03;;;;;;;;;;;8.40;99.90;;;;;;6165702;23;19959;-79
2021/05/25 01:15:35;;;;;;;;;;;8.40;99.90;;;;;;6159741;23;20346;-78
2021/05/25 01:18:02;;;;;;;;;;;8.40;99.90;;;;;;6183196;23;19920;-78
2021/05/25 01:20:30;;;;;;;;;;;8.30;99.90;;;;;;6184353;23;19947;-78
2021/05/25 01:22:57;;;;;;;;;;;8.40;99.90;;;;;;6158076;23;19927;-78
2021/05/25 01:25:28;;;;;;;;;;;8.30;99.90;;;;;;6159122;23;19920;-79
2021/05/25 01:27:56;;;;;;;;;;;8.30;99.90;;;;;;6158083;23;19931;-79
2021/05/25 01:30:30;;;;;;;;;;;8.30;99.90;;;;;;6184307;23;19920;-78
2021/05/25 01:32:57;;;;;;;;;;;8.30;99.90;;;;;;6158706;23;19927;-78
2021/05/25 01:35:24;;;;;;;;;;;8.30;99.90;;;;;;6158574;23;19999;-78
2021/05/25 01:37:51;;;;;;;;;;;8.30;99.90;;;;;;6158224;23;19920;-78
2021/05/25 01:40:23;;;;;;;;;;;8.30;99.90;;;;;;6183323;23;20003;-78
2021/05/25 01:42:50;;;;;;;;;;;8.30;99.90;;;;;;6158500;23;20309;-78
2021/05/25 01:45:19;;;;;;;;;;;8.30;99.90;;;;;;6159094;23;20353;-78
2021/05/25 01:47:46;;;;;;;;;;;8.30;99.90;;;;;;6158698;23;19974;-78
2021/05/25 01:50:18;;;;;;;;;;;8.20;99.90;;;;;;6159584;23;20389;-78
2021/05/25 01:52:49;;;;;;;;;;;8.30;99.90;;;;;;6158619;23;19943;-78
2021/05/25 01:55:23;;;;;;;;;;;8.20;99.90;;;;;;6183630;23;20305;-78
2021/05/25 01:57:56;;;;;;;;;;;8.20;99.90;;;;;;6161595;23;19921;-78
2021/05/25 02:00:28;;;;;;;;;;;8.20;99.90;;;;;;6161496;23;19959;-79
2021/05/25 02:02:59;;;;;;;;;;;8.20;99.90;;;;;;6161639;23;20305;-78
2021/05/25 02:05:32;;;;;;;;;;;8.20;99.90;;;;;;6161672;23;19921;-78
2021/05/25 02:07:59;;;;;;;;;;;8.20;99.90;;;;;;6160719;23;19924;-78
2021/05/25 02:10:25;;;;;;;;;;;8.20;99.90;;;;;;6185394;23;19951;-78
2021/05/25 02:12:54;;;;;;;;;;;8.20;99.90;;;;;;6160675;23;19995;-79
2021/05/25 02:15:21;;;;;;;;;;;8.20;99.90;;;;;;6160923;23;20349;-78
2021/05/25 02:17:53;;;;;;;;;;;8.20;99.90;;;;;;6185416;23;19920;-78
2021/05/25 02:20:24;;;;;;;;;;;8.20;99.90;;;;;;6185542;23;19920;-78
2021/05/25 02:22:51;;;;;;;;;;;8.20;99.90;;;;;;6160648;23;20318;-78
2021/05/25 02:25:18;;;;;;;;;;;8.10;99.90;;;;;;6160819;23;19958;-78
2021/05/25 02:27:44;;;;;;;;;;;8.20;99.90;;;;;;6160696;23;19927;-78
2021/05/25 02:30:11;;;;;;;;;;;8.10;99.90;;;;;;6160456;23;20007;-78
2021/05/25 02:32:43;;;;;;;;;;;8.20;99.90;;;;;;6161677;23;19952;-78
2021/05/25 02:35:10;;;;;;;;;;;8.10;99.90;;;;;;6160687;23;19955;-78
2021/05/25 02:37:36;;;;;;;;;;;8.10;99.90;;;;;;6160644;23;19927;-78
2021/05/25 02:40:04;;;;;;;;;;;8.10;99.90;;;;;;6160765;23;19920;-78
2021/05/25 02:42:35;;;;;;;;;;;8.10;99.90;;;;;;6161461;23;19946;-78
2021/05/25 02:45:03;;;;;;;;;;;8.10;99.90;;;;;;6185110;23;20003;-78
2021/05/25 02:47:29;;;;;;;;;;;8.10;99.90;;;;;;6185058;23;19920;-78
2021/05/25 02:50:08;;;;;;;;;;;8.10;99.90;;;;;;6161530;23;20002;-78
2021/05/25 02:52:39;;;;;;;;;;;8.10;99.90;;;;;;6160291;23;19952;-78
2021/05/25 02:55:07;;;;;;;;;;;8.10;99.90;;;;;;6185310;23;20317;-78
2021/05/25 02:57:33;;;;;;;;;;;8.10;99.90;;;;;;6159921;23;19920;-78
2021/05/25 03:00:07;;;;;;;;;;;8.00;99.90;;;;;;6163231;23;19952;-79
2021/05/25 03:02:33;;;;;;;;;;;8.00;99.90;;;;;;6184950;23;20404;-78
2021/05/25 03:05:00;;;;;;;;;;;8.00;99.90;;;;;;6185395;23;19963;-79
2021/05/25 03:07:27;;;;;;;;;;;8.00;99.90;;;;;;6160067;23;19924;-78
2021/05/25 03:09:58;;;;;;;;;;;8.00;99.90;;;;;;6161822;23;20346;-78
2021/05/25 03:12:30;;;;;;;;;;;7.90;99.90;;;;;;6161448;23;19947;-78
2021/05/25 03:14:57;;;;;;;;;;;7.80;99.90;;;;;;6160966;23;19920;-78
2021/05/25 03:17:24;;;;;;;;;;;7.80;99.90;;;;;;6160486;23;19927;-78
2021/05/25 03:19:50;;;;;;;;;;;7.70;99.90;;;;;;6160494;23;20391;-77
2021/05/25 03:22:17;;;;;;;;;;;7.60;99.90;;;;;;6175601;23;19928;-79
2021/05/25 03:24:44;;;;;;;;;;;7.60;99.90;;;;;;6207382;23;19920;-79
2021/05/25 03:27:10;;;;;;;;;;;7.60;99.90;;;;;;6181012;23;20112;-78
2021/05/25 03:29:37;;;;;;;;;;;7.50;99.90;;;;;;6161547;23;20400;-77
2021/05/25 03:32:04;;;;;;;;;;;7.50;99.90;;;;;;6160234;23;19956;-78
2021/05/25 03:34:30;;;;;;;;;;;7.50;99.90;;;;;;6159961;23;19958;-77
2021/05/25 03:36:57;;;;;;;;;;;7.50;99.90;;;;;;6184999;23;19936;-78
2021/05/25 03:39:29;;;;;;;;;;;7.50;99.90;;;;;;6185194;23;20389;-78
2021/05/25 03:41:59;;;;;;;;;;;7.50;99.90;;;;;;6185001;23;19967;-78
2021/05/25 03:44:26;;;;;;;;;;;7.60;99.90;;;;;;6160386;23;19920;-77
2021/05/25 03:46:58;;;;;;;;;;;7.60;99.90;;;;;;6161354;23;20345;-78
2021/05/25 03:49:24;;;;;;;;;;;7.60;99.90;;;;;;6159968;23;20003;-78
2021/05/25 03:51:51;;;;;;;;;;;7.50;99.90;;;;;;6159957;23;19928;-78
2021/05/25 03:54:31;;;;;;;;;;;7.50;99.90;;;;;;6159999;23;20246;-78
2021/05/25 03:57:06;;;;;;;;;;;7.40;99.90;;;;;;6160400;23;20369;-78
2021/05/25 03:59:32;;;;;;;;;;;7.40;99.90;;;;;;6160017;23;19924;-77
2021/05/25 04:01:59;;;;;;;;;;;7.40;99.90;;;;;;6184838;23;20348;-78
2021/05/25 04:04:26;;;;;;;;;;;7.40;99.90;;;;;;6184571;23;19954;-77
2021/05/25 04:06:53;;;;;;;;;;;7.30;99.90;;;;;;6184877;23;19967;-78
2021/05/25 04:09:19;;;;;;;;;;;7.30;99.90;;;;;;6184435;23;19921;-78
2021/05/25 04:11:46;;;;;;;;;;;7.30;99.90;;;;;;6184356;23;19960;-78
2021/05/25 04:14:18;;;;;;;;;;;7.20;99.90;;;;;;6132546;23;19952;-77
2021/05/25 04:16:44;;;;;;;;;;;7.20;99.90;;;;;;6155076;23;19921;-77
2021/05/25 04:19:11;;;;;;;;;;;7.20;99.90;;;;;;6154566;23;19972;-77
2021/05/25 04:21:38;;;;;;;;;;;7.20;99.90;;;;;;6154955;23;20253;-78
2021/05/25 04:24:05;;;;;;;;;;;7.10;99.90;;;;;;6130685;23;19920;-78
2021/05/25 04:26:32;;;;;;;;;;;7.10;99.90;;;;;;6130421;23;19921;-77
2021/05/25 04:29:04;;;;;;;;;;;7.10;99.90;;;;;;6131227;23;20364;-77
2021/05/25 04:31:31;;;;;;;;;;;7.00;99.90;;;;;;6130101;23;19925;-77
2021/05/25 04:33:59;;;;;;;;;;;7.10;99.90;;;;;;6130290;23;19921;-78
2021/05/25 04:36:31;;;;;;;;;;;7.10;99.90;;;;;;6154394;23;20003;-77
2021/05/25 04:38:58;;;;;;;;;;;7.10;99.90;;;;;;6154134;23;19948;-78
2021/05/25 04:42:02;;;;;;;;;;;7.10;99.90;;;;;;6159578;23;19927;-81
2021/05/25 05:00:11;;;;;;;;;;;7.10;99.90;;;;;;6052776;23;19924;-81
2021/05/25 05:06:33;;;;;;;;;;;7.40;99.90;;;;;;6032302;23;20471;-81
2021/05/25 05:09:57;;;;;;;;;;;7.60;99.90;;;;;;5973838;24;19971;-81
2021/05/25 05:12:49;;;;;;;;;;;7.70;99.90;;;;;;5983239;24;19923;-81
2021/05/25 05:16:10;;;;;;;;;;;7.70;99.90;;;;;;6036087;23;19897;-82
2021/05/25 05:19:04;;;;;;;;;;;7.80;99.90;;;;;;6059857;23;19922;-82
2021/05/25 05:21:52;;;;;;;;;;;7.90;99.90;;;;;;6058441;23;20000;-82
2021/05/25 05:24:21;;;;;;;;;;;8.10;99.90;;;;;;6055184;23;19921;-81
2021/05/25 05:27:14;;;;;;;;;;;8.20;99.90;;;;;;6035644;23;20438;-81
2021/05/25 05:30:01;;;;;;;;;;;8.40;99.90;;;;;;6056383;23;19921;-81
2021/05/25 05:32:56;;;;;;;;;;;8.50;99.90;;;;;;6103389;23;19943;-80
2021/05/25 05:35:23;;;;;;;;;;;8.60;99.90;;;;;;6169821;23;19920;-80
2021/05/25 05:37:50;;;;;;;;;;;8.60;99.90;;;;;;6137020;23;20305;-80
2021/05/25 05:40:17;;;;;;;;;;;8.60;99.90;;;;;;6146602;23;19920;-81
2021/05/25 05:42:45;;;;;;;;;;;8.60;99.90;;;;;;6173473;23;19921;-81
2021/05/25 05:45:27;;;;;;;;;;;8.60;99.90;;;;;;6149762;23;19928;-82
2021/05/25 05:47:55;;;;;;;;;;;8.70;99.90;;;;;;6170826;23;20269;-81
2021/05/25 05:50:22;;;;;;;;;;;8.70;99.90;;;;;;6172714;23;19971;-81
2021/05/25 05:52:56;;;;;;;;;;;8.70;99.90;;;;;;6145957;23;19920;-81
2021/05/25 05:55:30;;;;;;;;;;;8.70;99.90;;;;;;6178609;23;19921;-82
2021/05/25 05:58:30;;;;;;;;;;;8.70;99.90;;;;;;6151400;23;19953;-82
2021/05/25 06:01:37;;;;;;;;;;;8.70;99.90;;;;;;6150718;23;19921;-83
2021/05/25 06:04:52;;;;;;;;;;;8.70;99.90;;;;;;6180742;23;19923;-81
2021/05/25 06:08:33;;;;;;;;;;;8.70;99.90;;;;;;6121810;23;19925;-81
2021/05/25 06:11:05;;;;;;;;;;;8.70;99.90;;;;;;6093860;23;19921;-80
2021/05/25 06:13:32;;;;;;;;;;;8.80;99.90;;;;;;6090648;23;19925;-81
2021/05/25 06:16:18;;;;;;;;;;;8.80;99.90;;;;;;6112154;23;19927;-81
2021/05/25 06:19:18;;;;;;;;;;;8.80;99.90;;;;;;6172658;23;19921;-81
2021/05/25 06:21:47;;;;;;;;;;;8.90;99.90;;;;;;6176192;23;19951;-77
2021/05/25 06:24:17;;;;;;;;;;;9.00;99.90;;;;;;6132238;23;19999;-77
2021/05/25 06:26:44;;;;;;;;;;;9.00;99.90;;;;;;6157412;23;19920;-77
2021/05/25 06:29:11;;;;;;;;;;;9.10;99.90;;;;;;6167106;23;19921;-79
2021/05/25 06:31:38;;;;;;;;;;;9.20;99.90;;;;;;6163385;23;19925;-78
2021/05/25 06:34:05;;;;;;;;;;;9.20;99.90;;;;;;6144455;23;19976;-79
2021/05/25 06:36:37;;;;;;;;;;;9.20;99.90;;;;;;6139294;23;19920;-78
2021/05/25 06:39:04;;;;;;;;;;;9.10;99.90;;;;;;6154295;23;20341;-78
2021/05/25 06:41:31;;;;;;;;;;;9.10;99.90;;;;;;6155734;23;20346;-78
2021/05/25 06:44:03;;;;;;;;;;;9.20;99.90;;;;;;6132344;23;19952;-80
2021/05/25 06:46:29;;;;;;;;;;;9.30;99.90;;;;;;6131441;23;20434;-78
2021/05/25 06:48:56;;;;;;;;;;;9.40;99.90;;;;;;6155647;23;19921;-77
2021/05/25 06:51:25;;;;;;;;;;;9.50;99.90;;;;;;6155217;23;19925;-78
2021/05/25 06:53:52;;;;;;;;;;;9.60;99.90;;;;;;6155987;23;19931;-78
2021/05/25 06:56:18;;;;;;;;;;;9.70;99.90;;;;;;6155081;23;19972;-78
2021/05/25 06:58:45;;;;;;;;;;;9.90;99.90;;;;;;6130909;23;20345;-78
2021/05/25 07:01:12;;;;;;;;;;;10.00;99.90;;;;;;6156076;23;19924;-78
2021/05/25 07:03:41;;;;;;;;;;;9.90;99.90;;;;;;6156076;23;20012;-78
2021/05/25 07:06:08;;;;;;;;;;;9.90;99.90;;;;;;6131008;23;20404;-78
2021/05/25 07:08:35;;;;;;;;;;;9.80;99.90;;;;;;6155300;23;19921;-78
2021/05/25 07:11:03;;;;;;;;;;;9.80;99.90;;;;;;6130932;23;20269;-79
2021/05/25 07:13:30;;;;;;;;;;;9.90;99.90;;;;;;6156167;23;19964;-79
2021/05/25 07:15:58;;;;;;;;;;;9.90;99.90;;;;;;6131800;23;19928;-81
2021/05/25 07:18:26;;;;;;;;;;;9.80;99.90;;;;;;6175753;23;19920;-80
2021/05/25 07:20:53;;;;;;;;;;;9.70;99.90;;;;;;6162618;23;19951;-80
2021/05/25 07:23:21;;;;;;;;;;;9.90;99.90;;;;;;6160372;23;20329;-78
2021/05/25 07:25:48;;;;;;;;;;;10.00;99.90;;;;;;6185240;23;19967;-80
2021/05/25 07:28:16;;;;;;;;;;;10.10;99.90;;;;;;6184896;23;19920;-80
2021/05/25 07:30:46;;;;;;;;;;;10.10;99.90;;;;;;6160193;23;19920;-80
2021/05/25 07:33:14;;;;;;;;;;;10.30;99.90;;;;;;6159929;23;19920;-80
2021/05/25 07:35:42;;;;;;;;;;;10.40;99.90;;;;;;6160272;23;19936;-80
2021/05/25 07:38:10;;;;;;;;;;;10.50;99.90;;;;;;6161003;23;19920;-80
2021/05/25 07:40:41;;;;;;;;;;;10.60;99.90;;;;;;6160445;23;19927;-79
2021/05/25 07:43:09;;;;;;;;;;;10.50;99.90;;;;;;6160660;23;19927;-80
2021/05/25 07:45:37;;;;;;;;;;;10.50;99.90;;;;;;6184666;23;20346;-79
2021/05/25 07:48:04;;;;;;;;;;;10.50;99.90;;;;;;6185703;23;19921;-81
2021/05/25 07:50:31;;;;;;;;;;;10.50;99.90;;;;;;6160072;23;19924;-78
2021/05/25 07:52:58;;;;;;;;;;;10.60;99.90;;;;;;6159265;23;20316;-78
2021/05/25 07:55:31;;;;;;;;;;;10.60;99.90;;;;;;6160296;23;19927;-78
2021/05/25 07:57:58;;;;;;;;;;;10.60;99.90;;;;;;6159228;23;20381;-78
2021/05/25 08:00:26;;;;;;;;;;;10.60;99.90;;;;;;6160076;23;19959;-78
2021/05/25 08:02:58;;;;;;;;;;;10.50;99.90;;;;;;6160935;23;20342;-78
2021/05/25 08:05:25;;;;;;;;;;;10.50;99.90;;;;;;6160376;23;19959;-78
2021/05/25 08:07:52;;;;;;;;;;;10.60;99.90;;;;;;6160644;23;19952;-78
2021/05/25 08:10:19;;;;;;;;;;;10.90;99.90;;;;;;6160141;23;19975;-77
2021/05/25 08:12:45;;;;;;;;;;;11.00;99.90;;;;;;6186130;23;19924;-77
2021/05/25 08:15:18;;;;;;;;;;;11.10;99.90;;;;;;6160274;23;20339;-77
2021/05/25 08:18:07;;;;;;;;;;;11.10;99.90;;;;;;6184430;23;19951;-77
2021/05/25 08:20:34;;;;;;;;;;;11.20;99.90;;;;;;6159739;23;20349;-77
2021/05/25 08:23:01;;;;;;;;;;;11.30;99.90;;;;;;6158991;23;19920;-78
2021/05/25 08:25:33;;;;;;;;;;;11.10;99.90;;;;;;6160139;23;19966;-78
2021/05/25 08:28:01;;;;;;;;;;;11.20;99.90;;;;;;6158980;23;19920;-77
2021/05/25 08:30:35;;;;;;;;;;;11.30;99.90;;;;;;6184940;23;19925;-77
2021/05/25 08:33:02;;;;;;;;;;;11.20;99.90;;;;;;6158823;23;20133;-78
2021/05/25 08:35:30;;;;;;;;;;;11.00;99.90;;;;;;6159230;23;20346;-77
2021/05/25 08:37:59;;;;;;;;;;;10.90;99.90;;;;;;6159431;23;19943;-78
2021/05/25 08:40:27;;;;;;;;;;;10.90;99.90;;;;;;6184153;23;19922;-77
2021/05/25 08:42:53;;;;;;;;;;;10.90;99.90;;;;;;6159496;23;19920;-78
2021/05/25 08:45:23;;;;;;;;;;;10.80;99.90;;;;;;6159411;23;19921;-77
2021/05/25 08:47:51;;;;;;;;;;;10.60;99.90;;;;;;6184139;23;19920;-77
2021/05/25 08:50:19;;;;;;;;;;;10.60;99.90;;;;;;6159012;23;19920;-78
2021/05/25 08:52:45;;;;;;;;;;;10.70;99.90;;;;;;6158841;23;20392;-77
2021/05/25 08:55:12;;;;;;;;;;;10.80;99.90;;;;;;6158328;23;19955;-78
2021/05/25 08:57:39;;;;;;;;;;;11.00;99.90;;;;;;6158790;23;19920;-78
2021/05/25 09:00:11;;;;;;;;;;;11.10;99.90;;;;;;6160270;23;19956;-77
2021/05/25 09:02:37;;;;;;;;;;;11.20;99.90;;;;;;6159061;23;19943;-78
2021/05/25 09:05:08;;;;;;;;;;;11.30;99.90;;;;;;6160449;23;20408;-78
2021/05/25 09:07:35;;;;;;;;;;;11.30;99.90;;;;;;6161595;23;19920;-78
2021/05/25 09:10:03;;;;;;;;;;;11.30;99.90;;;;;;6161378;23;19975;-78
2021/05/25 09:12:36;;;;;;;;;;;11.20;99.90;;;;;;6187001;23;19940;-78
2021/05/25 09:15:03;;;;;;;;;;;11.10;99.90;;;;;;6161338;23;19978;-78
2021/05/25 09:17:30;;;;;;;;;;;11.20;99.90;;;;;;6160969;23;19948;-79
2021/05/25 09:19:57;;;;;;;;;;;11.30;99.90;;;;;;6185901;23;20346;-78
2021/05/25 09:22:31;;;;;;;;;;;11.40;99.90;;;;;;6185900;23;19924;-77
2021/05/25 09:25:00;;;;;;;;;;;11.50;99.90;;;;;;6186633;23;20282;-78
2021/05/25 09:27:28;;;;;;;;;;;11.60;99.90;;;;;;6186953;23;20360;-78
2021/05/25 09:30:10;;;;;;;;;;;11.60;99.90;;;;;;6186267;23;20003;-78
2021/05/25 09:32:55;;;;;;;;;;;11.70;99.90;;;;;;6161785;23;19926;-77
2021/05/25 09:35:23;;;;;;;;;;;12.00;99.90;;;;;;6160875;23;19920;-78
2021/05/25 09:37:54;;;;;;;;;;;11.80;99.90;;;;;;6185673;23;19955;-77
2021/05/25 09:40:23;;;;;;;;;;;11.60;99.90;;;;;;6197376;23;19951;-78
2021/05/25 09:43:15;;;;;;;;;;;11.70;99.90;;;;;;6170612;23;19920;-79
2021/05/25 09:46:05;;;;;;;;;;;11.80;99.90;;;;;;6191651;23;19920;-79
2021/05/25 09:48:33;;;;;;;;;;;11.80;99.90;;;;;;6161561;23;19955;-77
2021/05/25 09:51:00;;;;;;;;;;;12.00;99.90;;;;;;6185866;23;19995;-78
2021/05/25 09:53:31;;;;;;;;;;;12.10;99.90;;;;;;6185647;23;20432;-78
2021/05/25 09:55:59;;;;;;;;;;;12.20;99.90;;;;;;6185806;23;20024;-78
2021/05/25 09:58:45;;;;;;;;;;;12.30;99.90;;;;;;6185221;23;20346;-79
2021/05/25 10:01:13;;;;;;;;;;;12.30;99.90;;;;;;6160929;23;19924;-77
2021/05/25 10:03:44;;;;;;;;;;;12.30;99.90;;;;;;6186393;23;19939;-75
2021/05/25 10:06:12;;;;;;;;;;;12.20;99.90;;;;;;6185858;23;19928;-78
2021/05/25 10:08:48;;;;;;;;;;;12.20;99.90;;;;;;6161275;23;19956;-77
2021/05/25 10:11:16;;;;;;;;;;;12.30;99.90;;;;;;6160947;23;19927;-77
2021/05/25 10:13:48;;;;;;;;;;;12.40;99.90;;;;;;6161823;23;19952;-77
2021/05/25 10:16:16;;;;;;;;;;;12.50;99.90;;;;;;6185210;23;19920;-78
2021/05/25 10:21:11;;;;;;;;;;;12.50;99.90;;;;;;6184981;23;19927;-77
2021/05/25 10:23:39;;;;;;;;;;;12.40;99.90;;;;;;6184360;23;19931;-76
2021/05/25 10:26:11;;;;;;;;;;;12.30;99.90;;;;;;6159751;23;19927;-76
2021/05/25 10:28:40;;;;;;;;;;;12.50;99.90;;;;;;6159100;23;19966;-76
2021/05/25 10:31:25;;;;;;;;;;;12.50;99.90;;;;;;6160067;23;19920;-76
2021/05/25 10:34:11;;;;;;;;;;;12.60;99.90;;;;;;6189283;23;19946;-77
2021/05/25 10:36:42;;;;;;;;;;;12.70;99.90;;;;;;6165393;23;19967;-77
2021/05/25 10:39:10;;;;;;;;;;;12.80;99.90;;;;;;6162841;23;19920;-77
2021/05/25 10:41:42;;;;;;;;;;;12.80;99.90;;;;;;6163799;23;19920;-76
2021/05/25 10:44:09;;;;;;;;;;;12.80;99.90;;;;;;6187870;23;19991;-76
2021/05/25 10:46:36;;;;;;;;;;;12.60;99.90;;;;;;6163421;23;19921;-77
2021/05/25 10:49:15;;;;;;;;;;;12.40;98.50;;;;;;6165369;23;19972;-76
2021/05/25 10:51:48;;;;;;;;;;;12.80;99.90;;;;;;6189797;23;19920;-78
2021/05/25 10:54:32;;;;;;;;;;;13.10;99.90;;;;;;6165113;23;19952;-77
2021/05/25 10:57:01;;;;;;;;;;;13.20;97.80;;;;;;6164533;23;19971;-76
2021/05/25 10:59:48;;;;;;;;;;;13.30;98.20;;;;;;6164771;23;19958;-77
2021/05/25 11:02:40;;;;;;;;;;;13.50;99.10;;;;;;6187197;23;19955;-77
2021/05/25 11:05:27;;;;;;;;;;;13.10;97.40;;;;;;6164342;23;20408;-77
2021/05/25 11:08:14;;;;;;;;;;;13.30;99.20;;;;;;6163955;23;19924;-77
2021/05/25 11:10:42;;;;;;;;;;;13.60;98.10;;;;;;6188076;23;19920;-76
2021/05/25 11:13:19;;;;;;;;;;;13.40;94.60;;;;;;6164639;23;19927;-78
2021/05/25 11:16:01;;;;;;;;;;;13.20;97.00;;;;;;6188427;23;19920;-77
2021/05/25 11:18:35;;;;;;;;;;;12.80;97.70;;;;;;6187628;23;19927;-76
2021/05/25 11:21:29;;;;;;;;;;;12.60;94.90;;;;;;6163737;23;19920;-77
2021/05/25 11:23:51;;;;;;;;;;;12.80;94.40;;;;;;6185980;23;20300;-78
2021/05/25 11:26:38;;;;;;;;;;;12.70;94.80;;;;;;6164308;23;19959;-77
2021/05/25 11:29:32;;;;;;;;;;;12.90;97.00;;;;;;6161714;23;20007;-76
2021/05/25 11:32:05;;;;;;;;;;;13.10;94.30;;;;;;6179601;23;19931;-79
2021/05/25 11:34:32;;;;;;;;;;;13.20;96.20;;;;;;6156417;23;19921;-78
2021/05/25 11:37:01;;;;;;;;;;;13.10;93.90;;;;;;6163596;23;20349;-80
2021/05/25 11:39:29;;;;;;;;;;;13.30;94.40;;;;;;6189294;23;19935;-78
2021/05/25 11:41:57;;;;;;;;;;;13.40;94.70;;;;;;6163955;23;19967;-78
2021/05/25 11:44:31;;;;;;;;;;;13.30;90.00;;;;;;6161795;23;19956;-78
2021/05/25 11:46:59;;;;;;;;;;;13.30;90.90;;;;;;6162127;23;19920;-78
2021/05/25 11:49:32;;;;;;;;;;;13.50;90.50;;;;;;6186092;23;19920;-78
2021/05/25 11:51:59;;;;;;;;;;;13.80;89.20;;;;;;6160732;23;19956;-78
2021/05/25 11:54:28;;;;;;;;;;;13.90;84.70;;;;;;6160447;23;20297;-78
2021/05/25 11:56:55;;;;;;;;;;;14.20;88.40;;;;;;6160683;23;19927;-77
2021/05/25 11:59:28;;;;;;;;;;;14.30;86.30;;;;;;6161510;23;19928;-78
2021/05/25 12:01:55;;;;;;;;;;;14.20;83.70;;;;;;6184912;23;19967;-78
2021/05/25 12:04:22;;;;;;;;;;;14.10;83.40;;;;;;6186095;23;19921;-79
2021/05/25 12:06:49;;;;;;;;;;;14.10;87.90;;;;;;6160293;23;19971;-78
2021/05/25 12:09:19;;;;;;;;;;;14.00;79.20;;;;;;6185541;23;19927;-78
2021/05/25 12:11:49;;;;;;;;;;;13.80;81.60;;;;;;6161664;23;19974;-77
2021/05/25 12:14:27;;;;;;;;;;;13.40;77.80;;;;;;6184672;23;20299;-78
2021/05/25 12:16:55;;;;;;;;;;;13.10;79.00;;;;;;6186036;23;20353;-78
2021/05/25 12:19:27;;;;;;;;;;;12.90;81.10;;;;;;6191367;23;20425;-78
2021/05/25 12:22:05;;;;;;;;;;;12.90;83.40;;;;;;6164815;23;19924;-78
2021/05/25 12:24:37;;;;;;;;;;;12.90;81.50;;;;;;6164439;23;19967;-79
2021/05/25 12:27:04;;;;;;;;;;;12.80;80.90;;;;;;6187085;23;19924;-78
2021/05/25 12:29:36;;;;;;;;;;;12.80;85.80;;;;;;6187317;23;20003;-78
2021/05/25 12:32:07;;;;;;;;;;;12.80;84.90;;;;;;6186995;23;19955;-78
2021/05/25 12:34:38;;;;;;;;;;;13.00;85.00;;;;;;6163847;23;19934;-78
2021/05/25 12:37:05;;;;;;;;;;;13.20;82.90;;;;;;6188915;23;19920;-78
2021/05/25 12:39:37;;;;;;;;;;;13.10;80.60;;;;;;6212468;23;19998;-78
2021/05/25 12:42:16;;;;;;;;;;;13.00;84.80;;;;;;6186802;23;20273;-78
2021/05/25 12:44:48;;;;;;;;;;;13.10;84.10;;;;;;6213104;23;19982;-78
2021/05/25 12:47:16;;;;;;;;;;;13.20;89.60;;;;;;6190512;23;20605;-78
2021/05/25 12:49:47;;;;;;;;;;;13.20;87.10;;;;;;6196234;23;20405;-78
2021/05/25 12:52:24;;;;;;;;;;;13.30;85.90;;;;;;6194449;23;19920;-78
2021/05/25 12:54:56;;;;;;;;;;;13.30;88.20;;;;;;6218122;23;19986;-80
2021/05/25 12:57:25;;;;;;;;;;;13.60;86.90;;;;;;6190321;23;19974;-78
2021/05/25 13:00:00;;;;;;;;;;;13.90;88.60;;;;;;6164148;23;19991;-78
2021/05/25 13:02:48;;;;;;;;;;;14.00;82.30;;;;;;6188751;23;21533;-78
2021/05/25 13:05:23;;;;;;;;;;;14.10;81.10;;;;;;6189868;23;20373;-78
2021/05/25 13:07:54;;;;;;;;;;;14.30;82.30;;;;;;6188763;23;19919;-78
2021/05/25 13:10:33;;;;;;;;;;;14.20;78.10;;;;;;6214017;23;20003;-78
2021/05/25 13:13:18;;;;;;;;;;;14.20;75.60;;;;;;6190138;23;20275;-78
2021/05/25 13:15:57;;;;;;;;;;;14.40;77.80;;;;;;6190206;23;19974;-79
2021/05/25 13:18:55;;;;;;;;;;;14.50;77.80;;;;;;6215486;23;19994;-78
2021/05/25 13:21:24;;;;;;;;;;;14.80;76.30;;;;;;6183141;23;20345;-78
2021/05/25 13:23:53;;;;;;;;;;;14.90;76.30;;;;;;6164380;23;19920;-79
2021/05/25 13:26:31;;;;;;;;;;;15.00;75.50;;;;;;6188756;23;19927;-78
2021/05/25 13:28:59;;;;;;;;;;;15.20;80.90;;;;;;6190625;23;20002;-80
2021/05/25 13:34:25;;;;;;;;;;;15.60;75.00;;;;;;6126688;23;20421;-79
2021/05/25 13:36:55;;;;;;;;;;;15.60;73.20;;;;;;6125459;23;19982;-78
2021/05/25 13:39:23;;;;;;;;;;;15.40;69.10;;;;;;6149660;23;20390;-79
2021/05/25 13:41:51;;;;;;;;;;;15.10;67.10;;;;;;6145066;23;19945;-78
2021/05/25 13:44:19;;;;;;;;;;;14.70;68.10;;;;;;6120255;23;19921;-78
2021/05/25 13:46:46;;;;;;;;;;;14.50;66.30;;;;;;6095701;23;19937;-78
2021/05/25 13:49:18;;;;;;;;;;;14.60;71.80;;;;;;6119199;23;20254;-78
2021/05/25 13:51:48;;;;;;;;;;;14.90;70.90;;;;;;6096408;23;20398;-78
2021/05/25 13:54:15;;;;;;;;;;;14.90;71.10;;;;;;6097126;23;20343;-78
2021/05/25 13:56:48;;;;;;;;;;;14.80;68.30;;;;;;6122013;23;19973;-78
2021/05/25 13:59:17;;;;;;;;;;;14.60;70.00;;;;;;6122033;23;19999;-79
2021/05/25 14:01:45;;;;;;;;;;;14.50;71.00;;;;;;6121765;23;19945;-78
2021/05/25 14:04:14;;;;;;;;;;;14.40;73.90;;;;;;6097555;23;20008;-78
2021/05/25 14:06:42;;;;;;;;;;;14.30;71.80;;;;;;6122023;23;19921;-78
2021/05/25 14:09:14;;;;;;;;;;;14.20;71.60;;;;;;6098643;23;19927;-78
2021/05/25 14:11:42;;;;;;;;;;;14.20;73.50;;;;;;6146226;23;19996;-78
2021/05/25 14:14:10;;;;;;;;;;;14.60;71.10;;;;;;6096118;23;20258;-76
2021/05/25 14:16:37;;;;;;;;;;;14.90;67.00;;;;;;6094647;23;19948;-76
2021/05/25 14:19:09;;;;;;;;;;;14.70;65.30;;;;;;6119329;23;19921;-76
2021/05/25 14:21:36;;;;;;;;;;;14.70;66.20;;;;;;6119097;23;19955;-76
2021/05/25 14:24:02;;;;;;;;;;;14.70;67.70;;;;;;6119249;23;19921;-77
2021/05/25 14:26:29;;;;;;;;;;;14.60;64.50;;;;;;6143121;23;19944;-77
2021/05/25 14:28:56;;;;;;;;;;;14.50;64.70;;;;;;6117762;23;19973;-77
2021/05/25 14:31:23;;;;;;;;;;;14.50;63.90;;;;;;6093958;23;20334;-76
2021/05/25 14:33:55;;;;;;;;;;;14.60;62.40;;;;;;6168831;23;19921;-77
2021/05/25 14:36:27;;;;;;;;;;;15.10;62.60;;;;;;6147554;23;20004;-76
2021/05/25 14:38:53;;;;;;;;;;;15.10;61.50;;;;;;6172575;23;19944;-76
2021/05/25 14:41:20;;;;;;;;;;;15.00;60.40;;;;;;6172611;23;20390;-77
2021/05/25 14:43:47;;;;;;;;;;;14.80;59.70;;;;;;6195460;23;19967;-77
2021/05/25 14:46:14;;;;;;;;;;;15.00;61.20;;;;;;6170487;23;19928;-77
2021/05/25 14:48:43;;;;;;;;;;;15.20;57.40;;;;;;6197775;23;19921;-77
2021/05/25 14:51:10;;;;;;;;;;;15.60;57.00;;;;;;6197692;23;19925;-76
2021/05/25 14:53:45;;;;;;;;;;;16.00;57.00;;;;;;6147545;23;20406;-77
2021/05/25 14:56:15;;;;;;;;;;;16.30;55.60;;;;;;6172952;23;19928;-77
2021/05/25 14:58:45;;;;;;;;;;;16.30;53.90;;;;;;6198545;23;19925;-76
2021/05/25 15:01:19;;;;;;;;;;;16.00;52.30;;;;;;6146984;23;19953;-77
2021/05/25 15:04:02;;;;;;;;;;;15.80;53.30;;;;;;6150272;23;19921;-78
2021/05/25 15:06:30;;;;;;;;;;;15.80;55.00;;;;;;6175527;23;19955;-78
2021/05/25 15:09:00;;;;;;;;;;;16.10;52.90;;;;;;6199682;23;19921;-76
2021/05/25 15:11:27;;;;;;;;;;;15.50;53.00;;;;;;6150721;23;19987;-78
2021/05/25 15:13:59;;;;;;;;;;;15.10;55.50;;;;;;6149546;23;19999;-78